createdAt,value
2023-01-12T00:02:17.797Z,95769.63
2023-01-12T00:05:03.835Z,95765.06
2023-01-12T00:07:49.726Z,95765.06
2023-01-12T00:10:35.455Z,95769.88
2023-01-12T00:13:21.021Z,95765.59
2023-01-12T00:16:26.260Z,95767.44
2023-01-12T00:19:17.080Z,95770.41
2023-01-12T00:22:07.168Z,95770.41
2023-01-12T00:24:55.104Z,95775.22
2023-01-12T00:27:40.638Z,95781.13
2023-01-12T00:30:26.398Z,95779.81
2023-01-12T00:33:12.031Z,95784.91
2023-01-12T00:35:57.593Z,95774.72
2023-01-12T00:38:43.489Z,95786.50
2023-01-12T00:41:47.697Z,95784.91
2023-01-12T00:44:53.184Z,95797.22
2023-01-12T00:47:39.252Z,95794.28
2023-01-12T00:50:25.056Z,95786.50
2023-01-12T00:53:10.763Z,95791.88
2023-01-12T00:56:01.578Z,95787.31
2023-01-12T00:58:47.371Z,95790.50
2023-01-12T01:01:34.645Z,95789.75
2023-01-12T01:04:20.530Z,95783.28
2023-01-12T01:07:06.472Z,95802.03
2023-01-12T01:09:52.112Z,95789.44
2023-01-12T01:12:37.867Z,95794.53
2023-01-12T01:15:23.476Z,95797.22
2023-01-12T01:18:09.016Z,95792.38
2023-01-12T01:20:55.119Z,95783.25
2023-01-12T01:23:41.797Z,95780.56
2023-01-12T01:26:27.776Z,95781.63
2023-01-12T01:29:13.967Z,95780.56
2023-01-12T01:31:59.578Z,95776.03
2023-01-12T01:34:46.538Z,95780.06
2023-01-12T01:37:32.419Z,95774.72
2023-01-12T01:40:18.117Z,95775.53
2023-01-12T01:43:04.119Z,95776.31
2023-01-12T01:46:05.675Z,95772.84
2023-01-12T01:48:51.619Z,95768.03
2023-01-12T01:51:37.359Z,95768.84
2023-01-12T01:54:23.659Z,95767.25
2023-01-12T01:57:11.026Z,95766.69
2023-01-12T01:59:59.940Z,95766.09
2023-01-12T02:02:46.745Z,95767.69
2023-01-12T02:05:32.993Z,95772.19
2023-01-12T02:08:39.576Z,95762.25
2023-01-12T02:11:44.236Z,95768.09
2023-01-12T02:14:49.484Z,95763.50
2023-01-12T02:17:55.432Z,95763.19
2023-01-12T02:20:56.481Z,95761.56
2023-01-12T02:23:48.601Z,95766.38
2023-01-12T02:27:03.830Z,95783.44
2023-01-12T02:30:21.517Z,95770.06
2023-01-12T02:33:16.930Z,95767.66
2023-01-12T02:36:11.840Z,95765.78
2023-01-12T02:39:07.579Z,95755.09
2023-01-12T02:42:42.761Z,95756.13
2023-01-12T02:45:57.395Z,95762.25
2023-01-12T02:48:55.834Z,95765.19
2023-01-12T02:51:48.211Z,95774.56
2023-01-12T02:54:34.671Z,95774.56
2023-01-12T02:57:22.113Z,95773.75
2023-01-12T03:00:09.147Z,95766.28
2023-01-12T03:02:54.878Z,95756.13
2023-01-12T03:05:45.207Z,95765.72
2023-01-12T03:08:32.373Z,95764.06
2023-01-12T03:11:20.679Z,95769.94
2023-01-12T03:14:07.076Z,95771.56
2023-01-12T03:16:54.714Z,95772.38
2023-01-12T03:19:42.103Z,95763.81
2023-01-12T03:22:28.630Z,95769.94
2023-01-12T03:25:17.686Z,95774.19
2023-01-12T03:28:05.198Z,95781.13
2023-01-12T03:31:02.721Z,95770.44
2023-01-12T03:33:48.363Z,95770.69
2023-01-12T03:36:55.805Z,95773.09
2023-01-12T03:40:17.855Z,95784.84
2023-01-12T03:43:06.307Z,95772.28
2023-01-12T03:45:57.101Z,95771.50
2023-01-12T03:48:53.375Z,95773.66
2023-01-12T03:51:42.588Z,95773.69
2023-01-12T03:54:29.270Z,95763.31
2023-01-12T03:57:15.460Z,95775.06
2023-01-12T04:00:03.195Z,95775.38
2023-01-12T04:03:13.151Z,95780.22
2023-01-12T04:05:59.127Z,95774.38
2023-01-12T04:08:44.821Z,95778.66
2023-01-12T04:11:49.258Z,95785.63
2023-01-12T04:14:35.306Z,95786.19
2023-01-12T04:17:25.096Z,95791.00
2023-01-12T04:20:11.523Z,95796.63
2023-01-12T04:22:57.487Z,95800.41
2023-01-12T04:25:43.240Z,95800.69
2023-01-12T04:28:29.021Z,95799.69
2023-01-12T04:31:16.161Z,95801.03
2023-01-12T04:34:02.138Z,95795.69
2023-01-12T04:36:48.146Z,95798.88
2023-01-12T04:39:33.807Z,95790.53
2023-01-12T04:42:38.353Z,95805.50
2023-01-12T04:45:24.268Z,95805.50
2023-01-12T04:48:12.071Z,95805.50
2023-01-12T04:50:59.645Z,95794.78
2023-01-12T04:53:48.198Z,95803.91
2023-01-12T04:56:34.053Z,95808.75
2023-01-12T04:59:19.962Z,95807.69
2023-01-12T05:02:05.910Z,95809.31
2023-01-12T05:04:51.581Z,95809.63
2023-01-12T05:07:37.387Z,95804.56
2023-01-12T05:10:23.053Z,95797.63
2023-01-12T05:13:08.695Z,95812.34
2023-01-12T05:15:54.475Z,95808.88
2023-01-12T05:18:40.494Z,95813.41
2023-01-12T05:21:26.037Z,95805.16
2023-01-12T05:24:11.895Z,95819.56
2023-01-12T05:26:57.629Z,95813.16
2023-01-12T05:29:43.271Z,95817.69
2023-01-12T05:32:29.087Z,95812.84
2023-01-12T05:35:14.686Z,95816.34
2023-01-12T05:38:00.296Z,95808.88
2023-01-12T05:40:46.047Z,95818.50
2023-01-12T05:43:50.297Z,95825.44
2023-01-12T05:46:40.246Z,95827.03
2023-01-12T05:49:26.102Z,95816.34
2023-01-12T05:52:11.756Z,95823.03
2023-01-12T05:54:57.371Z,95821.19
2023-01-12T05:57:43.240Z,95828.16
2023-01-12T06:00:29.327Z,95814.22
2023-01-12T06:03:15.415Z,95830.06
2023-01-12T06:06:01.588Z,95824.44
2023-01-12T06:08:47.537Z,95836.50
2023-01-12T06:11:52.069Z,95834.09
2023-01-12T06:14:38.293Z,95837.91
2023-01-12T06:17:23.876Z,95832.00
2023-01-12T06:20:10.636Z,95830.69
2023-01-12T06:23:00.554Z,95838.44
2023-01-12T06:25:46.573Z,95834.72
2023-01-12T06:28:32.303Z,95842.22
2023-01-12T06:31:17.885Z,95827.75
2023-01-12T06:34:03.501Z,95835.78
2023-01-12T06:36:49.492Z,95834.97
2023-01-12T06:39:35.269Z,95843.81
2023-01-12T06:42:30.111Z,95839.56
2023-01-12T06:45:15.794Z,95850.78
2023-01-12T06:48:01.549Z,95848.09
2023-01-12T06:50:47.287Z,95850.78
2023-01-12T06:53:33.029Z,95851.56
2023-01-12T06:56:18.751Z,95852.38
2023-01-12T06:59:05.692Z,95856.13
2023-01-12T07:01:51.970Z,95848.84
2023-01-12T07:04:38.346Z,95858.25
2023-01-12T07:07:24.113Z,95857.69
2023-01-12T07:10:11.324Z,95865.47
2023-01-12T07:13:00.300Z,95861.19
2023-01-12T07:15:46.188Z,95854.50
2023-01-12T07:18:31.979Z,95858.78
2023-01-12T07:21:19.615Z,95862.53
2023-01-12T07:24:05.454Z,95864.47
2023-01-12T07:26:52.421Z,95858.84
2023-01-12T07:29:37.986Z,95854.06
2023-01-12T07:32:26.587Z,95862.13
2023-01-12T07:35:12.364Z,95864.25
2023-01-12T07:37:58.341Z,95857.84
2023-01-12T07:40:44.095Z,95854.66
2023-01-12T07:43:30.563Z,95855.16
2023-01-12T07:46:16.636Z,95860.53
2023-01-12T07:49:02.395Z,95867.47
2023-01-12T07:51:48.111Z,95879.00
2023-01-12T07:54:36.099Z,95871.22
2023-01-12T07:57:21.960Z,95887.28
2023-01-12T08:00:09.485Z,95881.94
2023-01-12T08:03:11.623Z,95887.81
2023-01-12T08:05:58.027Z,95886.22
2023-01-12T08:08:44.267Z,95900.72
2023-01-12T08:11:31.409Z,95892.16
2023-01-12T08:14:28.593Z,95896.97
2023-01-12T08:17:17.925Z,95898.03
2023-01-12T08:20:17.882Z,95902.91
2023-01-12T08:23:10.915Z,95910.94
2023-01-12T08:26:00.963Z,95919.28
2023-01-12T08:29:06.736Z,95906.94
2023-01-12T08:31:52.517Z,95915.78
2023-01-12T08:34:41.998Z,95913.97
2023-01-12T08:37:29.185Z,95907.28
2023-01-12T08:40:15.410Z,95915.38
2023-01-12T08:43:01.449Z,95914.03
2023-01-12T08:45:47.178Z,95920.75
2023-01-12T08:48:32.983Z,95929.94
2023-01-12T08:51:18.601Z,95922.97
2023-01-12T08:54:04.222Z,95924.63
2023-01-12T08:56:50.250Z,95925.16
2023-01-12T08:59:37.092Z,95931.59
2023-01-12T09:02:25.265Z,95935.66
2023-01-12T09:05:11.273Z,95939.44
2023-01-12T09:07:56.978Z,95930.31
2023-01-12T09:10:42.735Z,95930.56
2023-01-12T09:13:28.472Z,95925.22
2023-01-12T09:16:15.557Z,95926.81
2023-01-12T09:19:01.734Z,95930.88
2023-01-12T09:21:47.563Z,95924.16
2023-01-12T09:24:34.208Z,95923.06
2023-01-12T09:27:20.166Z,95916.09
2023-01-12T09:30:07.460Z,95907.25
2023-01-12T09:32:55.322Z,95908.03
2023-01-12T09:35:44.466Z,95895.97
2023-01-12T09:38:30.272Z,95894.66
2023-01-12T09:41:49.111Z,95893.31
2023-01-12T09:44:59.783Z,95890.88
2023-01-12T09:47:56.290Z,95894.91
2023-01-12T09:51:04.661Z,95886.03
2023-01-12T09:53:50.625Z,95880.13
2023-01-12T09:56:51.863Z,95879.59
2023-01-12T09:59:48.773Z,95884.72
2023-01-12T10:02:36.368Z,95886.06
2023-01-12T10:05:46.275Z,95881.25
2023-01-12T10:08:51.345Z,95881.22
2023-01-12T10:12:01.059Z,95880.16
2023-01-12T10:15:04.975Z,95873.16
2023-01-12T10:18:09.914Z,95874.81
2023-01-12T10:20:55.881Z,95876.94
2023-01-12T10:23:42.611Z,95879.09
2023-01-12T10:26:37.163Z,95874.25
2023-01-12T10:29:24.360Z,95863.25
2023-01-12T10:32:12.967Z,95860.84
2023-01-12T10:34:59.974Z,95865.13
2023-01-12T10:37:52.615Z,95854.41
2023-01-12T10:40:38.945Z,95854.38
2023-01-12T10:43:31.934Z,95851.16
2023-01-12T10:46:21.418Z,95853.25
2023-01-12T10:49:23.923Z,95850.56
2023-01-12T10:52:11.257Z,95850.53
2023-01-12T10:54:58.978Z,95842.44
2023-01-12T10:57:47.748Z,95841.34
2023-01-12T11:00:34.313Z,95839.44
2023-01-12T11:03:38.061Z,95842.38
2023-01-12T11:06:31.008Z,95841.84
2023-01-12T11:09:21.765Z,95835.13
2023-01-12T11:12:34.919Z,95837.50
2023-01-12T11:15:21.063Z,95832.66
2023-01-12T11:18:52.646Z,95837.50
2023-01-12T11:21:42.243Z,95831.59
2023-01-12T11:24:43.328Z,95829.97
2023-01-12T11:27:36.235Z,95831.31
2023-01-12T11:30:31.367Z,95824.06
2023-01-12T11:33:22.818Z,95832.13
2023-01-12T11:36:20.799Z,95816.59
2023-01-12T11:39:13.154Z,95822.50
2023-01-12T11:42:19.550Z,95826.25
2023-01-12T11:45:14.190Z,95831.66
2023-01-12T11:48:05.649Z,95825.50
2023-01-12T11:50:53.634Z,95818.56
2023-01-12T11:53:41.565Z,95817.22
2023-01-12T11:56:52.045Z,95812.13
2023-01-12T11:59:40.245Z,95819.91
2023-01-12T12:02:55.906Z,95814.81
2023-01-12T12:05:58.783Z,95819.91
2023-01-12T12:09:22.750Z,95820.72
2023-01-12T12:12:46.481Z,95821.53
2023-01-12T12:15:34.852Z,95816.94
2023-01-12T12:18:50.188Z,95813.72
2023-01-12T12:21:59.283Z,95813.47
2023-01-12T12:25:05.800Z,95809.69
2023-01-12T12:28:10.336Z,95807.28
2023-01-12T12:31:13.860Z,95812.38
2023-01-12T12:34:11.753Z,95806.75
2023-01-12T12:37:06.944Z,95807.03
2023-01-12T12:39:57.729Z,95809.16
2023-01-12T12:43:37.569Z,95813.47
2023-01-12T12:46:36.048Z,95807.00
2023-01-12T12:49:26.604Z,95801.06
2023-01-12T12:52:12.926Z,95793.59
2023-01-12T12:54:59.427Z,95811.25
2023-01-12T12:58:03.618Z,95805.63
2023-01-12T13:00:51.000Z,95813.41
2023-01-12T13:03:39.855Z,95798.34
2023-01-12T13:06:25.634Z,95802.88
2023-01-12T13:09:17.288Z,95810.13
2023-01-12T13:12:03.029Z,95812.25
2023-01-12T13:15:32.583Z,95819.22
2023-01-12T13:18:42.575Z,95818.19
2023-01-12T13:21:31.144Z,95826.25
2023-01-12T13:24:23.764Z,95818.78
2023-01-12T13:27:47.290Z,95816.66
2023-01-12T13:30:34.324Z,95820.97
2023-01-12T13:33:29.074Z,95820.72
2023-01-12T13:36:30.889Z,95823.16
2023-01-12T13:39:17.035Z,95818.34
2023-01-12T13:42:22.485Z,95818.88
2023-01-12T13:45:17.281Z,95819.94
2023-01-12T13:48:05.824Z,95815.13
2023-01-12T13:50:55.667Z,95821.03
2023-01-12T13:53:41.785Z,95825.84
2023-01-12T13:56:28.002Z,95821.03
2023-01-12T13:59:18.747Z,95822.63
2023-01-12T14:02:04.849Z,95818.88
2023-01-12T14:04:59.690Z,95826.38
2023-01-12T14:08:00.269Z,95833.38
2023-01-12T14:10:58.273Z,95823.16
2023-01-12T14:13:53.162Z,95833.91
2023-01-12T14:17:04.955Z,95834.22
2023-01-12T14:19:51.771Z,95832.59
2023-01-12T14:22:37.626Z,95826.41
2023-01-12T14:25:25.961Z,95826.97
2023-01-12T14:28:20.485Z,95836.09
2023-01-12T14:31:08.606Z,95824.28
2023-01-12T14:33:57.340Z,95831.28
2023-01-12T14:36:44.803Z,95833.97
2023-01-12T14:39:36.758Z,95835.88
2023-01-12T14:42:42.351Z,95838.28
2023-01-12T14:45:47.580Z,95837.19
2023-01-12T14:48:34.602Z,95836.16
2023-01-12T14:51:40.221Z,95843.13
2023-01-12T14:54:28.536Z,95844.75
2023-01-12T14:57:23.580Z,95847.97
2023-01-12T15:00:21.517Z,95847.97
2023-01-12T15:03:26.328Z,95859.25
2023-01-12T15:06:15.805Z,95857.63
2023-01-12T15:09:02.042Z,95869.97
2023-01-12T15:11:47.754Z,95873.72
2023-01-12T15:14:33.600Z,95874.78
2023-01-12T15:17:38.069Z,95883.09
2023-01-12T15:20:43.564Z,95877.50
2023-01-12T15:23:53.118Z,95880.16
2023-01-12T15:27:29.368Z,95878.56
2023-01-12T15:35:26.793Z,95881.25
2023-01-12T15:43:18.789Z,95894.63
2023-01-12T15:47:16.521Z,95893.56
2023-01-12T15:50:02.685Z,95893.03
2023-01-12T15:52:49.241Z,95899.19
2023-01-12T15:55:36.184Z,95912.84
2023-01-12T15:58:22.458Z,95909.09
2023-01-12T16:01:10.716Z,95910.72
2023-01-12T16:04:25.020Z,95906.97
2023-01-12T16:07:11.991Z,95905.91
2023-01-12T16:11:13.554Z,95908.06
2023-01-12T16:14:08.558Z,95911.28
2023-01-12T16:16:54.728Z,95907.50
2023-01-12T16:19:43.903Z,95916.09
2023-01-12T16:22:30.671Z,95912.88
2023-01-12T16:25:16.810Z,95908.06
2023-01-12T16:28:02.939Z,95904.84
2023-01-12T16:30:48.735Z,95912.91
2023-01-12T16:33:34.462Z,95912.59
2023-01-12T16:36:20.042Z,95919.84
2023-01-12T16:39:06.556Z,95924.69
2023-01-12T16:41:54.741Z,95927.91
2023-01-12T16:44:41.099Z,95933.78
2023-01-12T16:47:27.175Z,95925.19
2023-01-12T16:50:13.206Z,95934.31
2023-01-12T16:52:58.688Z,95940.78
2023-01-12T16:55:44.543Z,95941.84
2023-01-12T16:58:30.175Z,95934.59
2023-01-12T17:01:18.801Z,95941.28
2023-01-12T17:04:04.876Z,95932.75
2023-01-12T17:06:51.432Z,95945.34
2023-01-12T17:09:39.308Z,95942.91
2023-01-12T17:12:25.265Z,95944.00
2023-01-12T17:15:11.417Z,95943.19
2023-01-12T17:17:57.719Z,95948.03
2023-01-12T17:20:44.187Z,95950.47
2023-01-12T17:23:30.295Z,95953.66
2023-01-12T17:26:18.243Z,95947.75
2023-01-12T17:29:04.418Z,95952.06
2023-01-12T17:31:50.222Z,95950.72
2023-01-12T17:34:39.021Z,95954.75
2023-01-12T17:37:25.098Z,95954.22
2023-01-12T17:40:11.683Z,95953.41
2023-01-12T17:43:03.456Z,95951.53
2023-01-12T17:45:50.764Z,95961.19
2023-01-12T17:48:36.799Z,95955.28
2023-01-12T17:51:22.450Z,95957.44
2023-01-12T17:54:10.916Z,95949.09
2023-01-12T17:56:57.155Z,95955.81
2023-01-12T17:59:43.411Z,95947.22
2023-01-12T18:02:29.439Z,95952.06
2023-01-12T18:05:15.340Z,95950.19
2023-01-12T18:08:01.136Z,95954.75
2023-01-12T18:10:47.111Z,95948.28
2023-01-12T18:13:34.585Z,95939.72
2023-01-12T18:16:21.087Z,95950.69
2023-01-12T18:19:08.966Z,95948.56
2023-01-12T18:21:55.078Z,95956.59
2023-01-12T18:24:41.153Z,95950.97
2023-01-12T18:27:27.232Z,95952.56
2023-01-12T18:30:13.820Z,95947.72
2023-01-12T18:33:00.091Z,95953.38
2023-01-12T18:35:46.329Z,95950.94
2023-01-12T18:38:32.210Z,95956.84
2023-01-12T18:41:38.035Z,95955.25
2023-01-12T18:44:24.907Z,95949.88
2023-01-12T18:47:34.818Z,95949.88
2023-01-12T18:50:40.296Z,95946.66
2023-01-12T18:53:31.873Z,95948.25
2023-01-12T18:56:17.948Z,95951.47
2023-01-12T18:59:04.492Z,95959.28
2023-01-12T19:01:50.845Z,95946.94
2023-01-12T19:04:57.911Z,95957.94
2023-01-12T19:07:52.945Z,95956.31
2023-01-12T19:10:39.042Z,95953.09
2023-01-12T19:13:43.323Z,95960.06
2023-01-12T19:16:50.051Z,95942.38
2023-01-12T19:19:36.255Z,95962.75
2023-01-12T19:22:40.979Z,95963.56
2023-01-12T19:25:47.146Z,95962.75
2023-01-12T19:28:35.503Z,95969.19
2023-01-12T19:31:21.515Z,95965.19
2023-01-12T19:34:07.130Z,95972.94
2023-01-12T19:36:53.085Z,95974.00
2023-01-12T19:40:14.111Z,95972.13
2023-01-12T19:43:33.683Z,95960.56
2023-01-12T19:46:19.623Z,95967.53
2023-01-12T19:49:05.485Z,95964.59
2023-01-12T19:51:51.250Z,95974.25
2023-01-12T19:54:37.183Z,95965.13
2023-01-12T19:57:22.879Z,95970.75
2023-01-12T20:00:14.336Z,95972.09
2023-01-12T20:03:00.519Z,95968.06
2023-01-12T20:05:48.023Z,95973.16
2023-01-12T20:08:34.235Z,95967.00
2023-01-12T20:11:20.097Z,95968.84
2023-01-12T20:14:06.149Z,95967.25
2023-01-12T20:16:51.899Z,95968.06
2023-01-12T20:19:37.814Z,95968.56
2023-01-12T20:22:23.655Z,95969.38
2023-01-12T20:25:10.374Z,95964.81
2023-01-12T20:27:56.149Z,95963.75
2023-01-12T20:30:43.303Z,95970.19
2023-01-12T20:33:29.807Z,95975.03
2023-01-12T20:36:17.336Z,95972.88
2023-01-12T20:39:03.665Z,95973.66
2023-01-12T20:41:49.653Z,95974.75
2023-01-12T20:44:35.642Z,95979.28
2023-01-12T20:47:21.795Z,95974.47
2023-01-12T20:50:11.981Z,95978.47
2023-01-12T20:52:59.778Z,95980.91
2023-01-12T20:55:48.630Z,95982.53
2023-01-12T20:58:34.500Z,95989.50
2023-01-12T21:01:20.895Z,95974.47
2023-01-12T21:04:06.790Z,95979.88
2023-01-12T21:06:52.711Z,95976.66
2023-01-12T21:09:38.841Z,95977.19
2023-01-12T21:12:27.271Z,95971.81
2023-01-12T21:15:13.623Z,95972.63
2023-01-12T21:17:59.673Z,95974.75
2023-01-12T21:20:45.324Z,95970.75
2023-01-12T21:23:31.184Z,95964.31
2023-01-12T21:26:17.245Z,95958.13
2023-01-12T21:29:03.370Z,95968.06
2023-01-12T21:31:49.480Z,95957.84
2023-01-12T21:34:35.265Z,95951.69
2023-01-12T21:37:21.428Z,95956.78
2023-01-12T21:40:08.518Z,95963.22
2023-01-12T21:43:11.965Z,95953.59
2023-01-12T21:46:04.385Z,95967.00
2023-01-12T21:48:50.189Z,95954.09
2023-01-12T21:51:35.952Z,95949.81
2023-01-12T21:54:21.743Z,95958.94
2023-01-12T21:57:07.645Z,95953.84
2023-01-12T21:59:53.999Z,95964.31
2023-01-12T22:02:40.232Z,95955.19
2023-01-12T22:05:26.112Z,95952.50
2023-01-12T22:08:12.039Z,95955.19
2023-01-12T22:11:04.807Z,95946.91
2023-01-12T22:13:50.743Z,95946.59
2023-01-12T22:16:36.546Z,95951.44
2023-01-12T22:19:22.181Z,95941.25
2023-01-12T22:22:07.947Z,95939.91
2023-01-12T22:24:53.586Z,95935.88
2023-01-12T22:27:41.670Z,95947.16
2023-01-12T22:30:28.002Z,95944.47
2023-01-12T22:33:13.748Z,95946.09
2023-01-12T22:36:02.029Z,95939.13
2023-01-12T22:38:48.102Z,95939.66
2023-01-12T22:41:34.374Z,95939.66
2023-01-12T22:44:20.176Z,95937.22
2023-01-12T22:47:05.793Z,95934.28
2023-01-12T22:49:51.607Z,95937.75
2023-01-12T22:52:39.250Z,95943.66
2023-01-12T22:55:25.613Z,95935.38
2023-01-12T22:58:11.665Z,95934.56
2023-01-12T23:01:08.892Z,95924.63
2023-01-12T23:03:58.537Z,95931.63
2023-01-12T23:06:44.231Z,95939.13
2023-01-12T23:09:29.949Z,95923.31
2023-01-12T23:12:15.711Z,95925.72
2023-01-12T23:15:01.205Z,95934.28
2023-01-12T23:17:47.001Z,95934.28
2023-01-12T23:20:35.719Z,95934.28
2023-01-12T23:23:21.325Z,95935.91
2023-01-12T23:26:09.016Z,95931.88
2023-01-12T23:28:56.876Z,95946.88
2023-01-12T23:31:42.382Z,95942.06
2023-01-12T23:34:28.965Z,95945.00
2023-01-12T23:37:15.000Z,95942.03
2023-01-12T23:40:00.772Z,95940.69
2023-01-12T23:42:46.362Z,95937.16
2023-01-12T23:45:33.396Z,95936.59
2023-01-12T23:48:19.121Z,95936.31
2023-01-12T23:51:05.222Z,95938.44
2023-01-12T23:53:59.804Z,95932.81
2023-01-12T23:56:46.181Z,95937.38
2023-01-12T23:59:31.869Z,95940.31
